createdAt,value
2022-08-25T00:00:10.840Z,467.6250
2022-08-25T00:00:21.983Z,466.6430
2022-08-25T00:00:33.085Z,472.2610
2022-08-25T00:00:44.328Z,468.6110
2022-08-25T00:00:55.916Z,465.9910
2022-08-25T00:01:07.092Z,468.9400
2022-08-25T00:01:18.651Z,468.9400
2022-08-25T00:01:30.249Z,468.2820
2022-08-25T00:01:42.901Z,466.3170
2022-08-25T00:01:54.061Z,471.9270
2022-08-25T00:02:05.219Z,473.2670
2022-08-25T00:02:16.947Z,468.2820
2022-08-25T00:02:29.386Z,468.6110
2022-08-25T00:02:40.522Z,468.6110
2022-08-25T00:02:56.003Z,467.6250
2022-08-25T00:03:08.675Z,461.1570
2022-08-25T00:03:19.740Z,462.1160
2022-08-25T00:03:35.910Z,464.3680
2022-08-25T00:03:50.121Z,453.6280
2022-08-25T00:04:01.811Z,457.3620
2022-08-25T00:04:13.033Z,459.2510
2022-08-25T00:04:24.890Z,458.3050
2022-08-25T00:04:36.070Z,460.5200
2022-08-25T00:04:53.030Z,460.5200
2022-08-25T00:05:05.560Z,453.6280
2022-08-25T00:05:17.678Z,455.4870
2022-08-25T00:05:32.298Z,455.1760
2022-08-25T00:05:44.636Z,452.0900
2022-08-25T00:05:55.783Z,456.1100
2022-08-25T00:06:06.935Z,457.3620
2022-08-25T00:06:17.998Z,454.8660
2022-08-25T00:06:29.217Z,458.6200
2022-08-25T00:06:40.393Z,461.1570
2022-08-25T00:06:51.593Z,460.8380
2022-08-25T00:07:03.449Z,463.0790
2022-08-25T00:07:14.542Z,458.9350
2022-08-25T00:07:29.733Z,457.3620
2022-08-25T00:07:40.871Z,456.7350
2022-08-25T00:07:52.092Z,463.4000
2022-08-25T00:08:03.287Z,457.6750
2022-08-25T00:08:14.421Z,461.1570
2022-08-25T00:08:25.461Z,462.1160
2022-08-25T00:08:36.505Z,460.5200
2022-08-25T00:08:47.763Z,464.3680
2022-08-25T00:08:59.055Z,463.7230
2022-08-25T00:09:10.188Z,464.0450
2022-08-25T00:09:21.272Z,464.3680
2022-08-25T00:09:32.325Z,464.0450
2022-08-25T00:09:43.404Z,463.0790
2022-08-25T00:09:54.601Z,469.9320
2022-08-25T00:10:05.819Z,462.4360
2022-08-25T00:10:17.004Z,466.9700
2022-08-25T00:10:28.207Z,465.9910
2022-08-25T00:10:39.404Z,467.2970
2022-08-25T00:11:03.427Z,472.9310
2022-08-25T00:11:07.570Z,458.6200
2022-08-25T00:11:18.632Z,463.0790
2022-08-25T00:11:29.813Z,463.7230
2022-08-25T00:11:40.892Z,463.7230
2022-08-25T00:11:51.956Z,465.3410
2022-08-25T00:12:03.012Z,466.3170
2022-08-25T00:12:14.118Z,463.7230
2022-08-25T00:12:25.215Z,465.0160
2022-08-25T00:12:36.298Z,466.9700
2022-08-25T00:12:47.388Z,467.9530
2022-08-25T00:12:58.436Z,468.2820
2022-08-25T00:13:09.478Z,469.6010
2022-08-25T00:13:20.669Z,468.6110
2022-08-25T00:13:37.811Z,458.9350
2022-08-25T00:13:49.011Z,460.5200
2022-08-25T00:14:00.225Z,463.0790
2022-08-25T00:14:11.410Z,463.7230
2022-08-25T00:14:22.466Z,465.6660
2022-08-25T00:14:33.631Z,463.7230
2022-08-25T00:14:44.814Z,468.2820
2022-08-25T00:14:56.016Z,471.5930
2022-08-25T00:15:07.151Z,466.6430
2022-08-25T00:15:18.204Z,465.6660
2022-08-25T00:15:29.321Z,468.2820
2022-08-25T00:15:40.388Z,469.6010
2022-08-25T00:15:51.545Z,468.2820
2022-08-25T00:16:03.262Z,468.6110
2022-08-25T00:16:14.632Z,467.2970
2022-08-25T00:16:25.705Z,470.2630
2022-08-25T00:16:36.880Z,468.9400
2022-08-25T00:16:47.947Z,468.9400
2022-08-25T00:16:58.983Z,470.5950
2022-08-25T00:17:10.112Z,472.2610
2022-08-25T00:17:21.266Z,469.6010
2022-08-25T00:17:32.497Z,471.5930
2022-08-25T00:17:43.598Z,469.6010
2022-08-25T00:17:54.723Z,470.5950
2022-08-25T00:18:19.519Z,469.6010
2022-08-25T00:18:22.802Z,463.0790
2022-08-25T00:18:33.877Z,462.4360
2022-08-25T00:18:44.963Z,463.0790
2022-08-25T00:18:56.010Z,470.2630
2022-08-25T00:19:07.309Z,467.6250
2022-08-25T00:19:18.502Z,466.9700
2022-08-25T00:19:29.579Z,466.9700
2022-08-25T00:19:40.662Z,469.9320
2022-08-25T00:19:51.885Z,468.9400
2022-08-25T00:20:03.061Z,469.6010
2022-08-25T00:20:14.176Z,468.9400
2022-08-25T00:20:25.239Z,468.9400
2022-08-25T00:20:36.279Z,472.5960
2022-08-25T00:20:51.522Z,462.7570
2022-08-25T00:21:02.679Z,465.6660
2022-08-25T00:21:13.812Z,468.6110
2022-08-25T00:21:24.858Z,467.6250
2022-08-25T00:21:35.948Z,471.2600
2022-08-25T00:21:47.059Z,468.6110
2022-08-25T00:21:58.218Z,471.2600
2022-08-25T00:22:09.446Z,470.2630
2022-08-25T00:22:20.505Z,468.9400
2022-08-25T00:22:31.552Z,470.2630
2022-08-25T00:22:42.922Z,470.2630
2022-08-25T00:22:53.972Z,468.9400
2022-08-25T00:23:05.042Z,470.2630
2022-08-25T00:23:19.668Z,465.6660
2022-08-25T00:23:30.821Z,467.6250
2022-08-25T00:23:42.263Z,467.6250
2022-08-25T00:23:53.302Z,466.9700
2022-08-25T00:24:04.410Z,468.2820
2022-08-25T00:24:15.590Z,466.9700
2022-08-25T00:24:26.648Z,469.2700
2022-08-25T00:24:37.693Z,471.5930
2022-08-25T00:24:48.769Z,469.2700
2022-08-25T00:24:59.963Z,471.2600
2022-08-25T00:25:11.003Z,472.9310
2022-08-25T00:25:22.044Z,471.5930
2022-08-25T00:25:33.170Z,471.9270
2022-08-25T00:25:44.222Z,472.5960
2022-08-25T00:25:55.282Z,471.5930
2022-08-25T00:26:06.563Z,475.6300
2022-08-25T00:26:17.626Z,474.2770
2022-08-25T00:26:28.713Z,474.2770
2022-08-25T00:26:39.928Z,471.5930
2022-08-25T00:26:51.171Z,473.9400
2022-08-25T00:27:02.341Z,475.9690
2022-08-25T00:27:13.405Z,471.5930
2022-08-25T00:27:24.491Z,470.9270
2022-08-25T00:27:35.533Z,478.3600
2022-08-25T00:27:46.735Z,473.6030
2022-08-25T00:27:57.958Z,473.6030
2022-08-25T00:28:09.394Z,473.6030
2022-08-25T00:28:20.784Z,472.5960
2022-08-25T00:28:31.965Z,472.2610
2022-08-25T00:28:43.010Z,474.6140
2022-08-25T00:28:54.222Z,472.5960
2022-08-25T00:29:11.097Z,466.6430
2022-08-25T00:29:22.170Z,468.2820
2022-08-25T00:29:33.240Z,465.3410
2022-08-25T00:29:44.306Z,470.9270
2022-08-25T00:29:55.343Z,470.9270
2022-08-25T00:30:06.476Z,468.2820
2022-08-25T00:30:17.531Z,469.6010
2022-08-25T00:30:28.613Z,471.5930
2022-08-25T00:30:39.747Z,470.5950
2022-08-25T00:30:50.872Z,468.9400
2022-08-25T00:31:02.011Z,471.5930
2022-08-25T00:31:13.085Z,470.9270
2022-08-25T00:31:24.248Z,474.6140
2022-08-25T00:31:41.205Z,463.7230
2022-08-25T00:31:52.379Z,461.1570
2022-08-25T00:32:03.537Z,468.6110
2022-08-25T00:32:14.614Z,467.9530
2022-08-25T00:32:25.839Z,467.6250
2022-08-25T00:32:36.926Z,468.6110
2022-08-25T00:32:55.507Z,473.9400
2022-08-25T00:33:05.081Z,465.6660
2022-08-25T00:33:16.181Z,459.8850
2022-08-25T00:33:27.408Z,465.6660
2022-08-25T00:33:39.119Z,465.3410
2022-08-25T00:33:50.162Z,466.9700
2022-08-25T00:34:01.211Z,470.2630
2022-08-25T00:34:12.357Z,472.5960
2022-08-25T00:34:23.492Z,467.6250
2022-08-25T00:34:34.557Z,468.9400
2022-08-25T00:34:45.671Z,471.9270
2022-08-25T00:34:56.713Z,469.2700
2022-08-25T00:35:07.797Z,469.2700
2022-08-25T00:35:18.964Z,470.2630
2022-08-25T00:35:30.164Z,471.2600
2022-08-25T00:35:41.362Z,469.6010
2022-08-25T00:35:52.602Z,472.2610
2022-08-25T00:36:03.665Z,469.2700
2022-08-25T00:36:14.742Z,469.6010
2022-08-25T00:36:25.838Z,471.5930
2022-08-25T00:36:37.079Z,469.6010
2022-08-25T00:36:48.120Z,472.2610
2022-08-25T00:36:59.198Z,470.2630
2022-08-25T00:37:10.358Z,470.5950
2022-08-25T00:37:21.576Z,470.9270
2022-08-25T00:37:32.762Z,472.5960
2022-08-25T00:37:44.364Z,468.6110
2022-08-25T00:37:55.428Z,471.2600
2022-08-25T00:38:06.713Z,470.2630
2022-08-25T00:38:17.958Z,472.9310
2022-08-25T00:38:29.112Z,470.2630
2022-08-25T00:38:40.327Z,471.9270
2022-08-25T00:38:51.384Z,475.9690
2022-08-25T00:39:02.459Z,473.6030
2022-08-25T00:39:13.512Z,470.9270
2022-08-25T00:39:24.591Z,473.2670
2022-08-25T00:39:35.868Z,473.6030
2022-08-25T00:39:47.123Z,471.2600
2022-08-25T00:39:58.299Z,471.5930
2022-08-25T00:40:09.558Z,472.9310
2022-08-25T00:40:20.710Z,472.2610
2022-08-25T00:40:31.825Z,469.2700
2022-08-25T00:40:43.088Z,470.9270
2022-08-25T00:40:54.337Z,472.9310
2022-08-25T00:41:06.300Z,471.5930
2022-08-25T00:41:17.443Z,469.6010
2022-08-25T00:41:28.618Z,473.6030
2022-08-25T00:41:39.760Z,472.5960
2022-08-25T00:41:50.812Z,470.2630
2022-08-25T00:42:02.037Z,475.6300
2022-08-25T00:42:15.918Z,473.6030
2022-08-25T00:42:27.674Z,467.9530
2022-08-25T00:42:38.804Z,467.6250
2022-08-25T00:42:49.867Z,472.9310
2022-08-25T00:43:01.005Z,470.9270
2022-08-25T00:43:12.232Z,470.2630
2022-08-25T00:43:23.455Z,472.5960
2022-08-25T00:43:34.516Z,471.5930
2022-08-25T00:43:45.556Z,469.9320
2022-08-25T00:43:56.966Z,472.5960
2022-08-25T00:44:08.279Z,468.9400
2022-08-25T00:44:19.333Z,473.6030
2022-08-25T00:44:30.454Z,470.5950
2022-08-25T00:44:41.508Z,469.6010
2022-08-25T00:44:53.032Z,471.9270
2022-08-25T00:45:04.280Z,471.5930
2022-08-25T00:45:15.379Z,472.5960
2022-08-25T00:45:26.505Z,471.5930
2022-08-25T00:45:37.577Z,473.9400
2022-08-25T00:45:48.713Z,472.9310
2022-08-25T00:45:59.871Z,470.9270
2022-08-25T00:46:11.005Z,471.5930
2022-08-25T00:46:22.107Z,468.9400
2022-08-25T00:46:33.206Z,468.9400
2022-08-25T00:46:44.457Z,472.2610
2022-08-25T00:46:55.595Z,470.2630
2022-08-25T00:47:06.743Z,471.5930
2022-08-25T00:47:17.824Z,472.9310
2022-08-25T00:47:28.952Z,471.5930
2022-08-25T00:47:40.001Z,469.9320
2022-08-25T00:47:51.061Z,472.2610
2022-08-25T00:48:02.348Z,471.2600
2022-08-25T00:48:13.560Z,470.9270
2022-08-25T00:48:24.641Z,472.5960
2022-08-25T00:48:35.698Z,470.9270
2022-08-25T00:48:46.772Z,470.2630
2022-08-25T00:48:58.051Z,474.2770
2022-08-25T00:49:09.111Z,473.6030
2022-08-25T00:49:26.094Z,463.7230
2022-08-25T00:49:37.159Z,466.3170
2022-08-25T00:49:48.341Z,467.6250
2022-08-25T00:49:59.631Z,462.7570
2022-08-25T00:50:10.681Z,469.6010
2022-08-25T00:50:21.746Z,467.9530
2022-08-25T00:50:32.852Z,469.2700
2022-08-25T00:50:45.041Z,468.2820
2022-08-25T00:50:56.102Z,470.2630
2022-08-25T00:51:07.171Z,465.0160
2022-08-25T00:51:18.301Z,468.9400
2022-08-25T00:51:29.518Z,467.6250
2022-08-25T00:51:40.700Z,467.6250
2022-08-25T00:51:51.781Z,469.6010
2022-08-25T00:52:02.845Z,468.9400
2022-08-25T00:52:13.925Z,470.2630
2022-08-25T00:52:24.981Z,469.9320
2022-08-25T00:52:36.075Z,471.2600
2022-08-25T00:52:47.275Z,468.9400
2022-08-25T00:52:58.324Z,470.5950
2022-08-25T00:53:09.395Z,470.9270
2022-08-25T00:53:20.446Z,467.6250
2022-08-25T00:53:31.630Z,472.9310
2022-08-25T00:53:42.833Z,468.6110
2022-08-25T00:53:53.972Z,470.2630
2022-08-25T00:54:05.162Z,469.2700
2022-08-25T00:54:16.366Z,469.9320
2022-08-25T00:54:27.561Z,469.2700
2022-08-25T00:54:38.889Z,469.2700
2022-08-25T00:54:49.936Z,468.2820
2022-08-25T00:55:05.763Z,469.6010
2022-08-25T00:55:17.982Z,460.5200
2022-08-25T00:55:29.026Z,461.7960
2022-08-25T00:55:40.166Z,464.6920
2022-08-25T00:55:51.207Z,465.0160
2022-08-25T00:56:02.270Z,465.3410
2022-08-25T00:56:13.341Z,463.7230
2022-08-25T00:56:24.567Z,468.9400
2022-08-25T00:56:35.800Z,466.3170
2022-08-25T00:56:46.828Z,467.6250
2022-08-25T00:56:57.968Z,467.2970
2022-08-25T00:57:09.046Z,466.6430
2022-08-25T00:57:22.131Z,467.6250
2022-08-25T00:57:37.095Z,457.9900
2022-08-25T00:57:48.210Z,459.5680
2022-08-25T00:57:59.296Z,460.8380
2022-08-25T00:58:10.640Z,465.3410
2022-08-25T00:58:21.709Z,462.4360
2022-08-25T00:58:32.779Z,463.7230
2022-08-25T00:58:43.922Z,465.0160
2022-08-25T00:58:56.807Z,461.1570
2022-08-25T00:59:07.859Z,464.0450
2022-08-25T00:59:19.072Z,462.1160
2022-08-25T00:59:30.275Z,464.0450
2022-08-25T00:59:41.318Z,465.6660
2022-08-25T00:59:52.354Z,465.6660
2022-08-25T01:00:03.563Z,465.3410
2022-08-25T01:00:14.668Z,465.3410
2022-08-25T01:00:25.799Z,465.0160
2022-08-25T01:00:36.939Z,466.3170
2022-08-25T01:00:47.978Z,465.0160
2022-08-25T01:00:59.118Z,468.2820
2022-08-25T01:01:10.254Z,466.6430
2022-08-25T01:01:21.389Z,465.0160
2022-08-25T01:01:32.574Z,466.9700
2022-08-25T01:01:43.790Z,466.9700
2022-08-25T01:01:54.934Z,463.7230
2022-08-25T01:02:06.053Z,468.6110
2022-08-25T01:02:19.521Z,461.1570
2022-08-25T01:02:30.860Z,461.7960
2022-08-25T01:02:42.084Z,463.0790
2022-08-25T01:02:53.196Z,464.3680
2022-08-25T01:03:04.336Z,464.3680
2022-08-25T01:03:15.406Z,466.6430
2022-08-25T01:03:33.469Z,467.9530
2022-08-25T01:03:43.555Z,461.1570
2022-08-25T01:03:54.686Z,458.6200
2022-08-25T01:04:05.783Z,461.1570
2022-08-25T01:04:16.832Z,461.7960
2022-08-25T01:04:27.995Z,461.4760
2022-08-25T01:04:39.183Z,464.0450
2022-08-25T01:04:50.403Z,461.1570
2022-08-25T01:05:01.553Z,462.7570
2022-08-25T01:05:12.645Z,463.0790
2022-08-25T01:05:23.706Z,462.1160
2022-08-25T01:05:34.795Z,463.0790
2022-08-25T01:05:45.857Z,462.7570
2022-08-25T01:05:57.055Z,465.0160
2022-08-25T01:06:09.579Z,461.1570
2022-08-25T01:06:20.657Z,461.1570
2022-08-25T01:06:31.736Z,465.3410
2022-08-25T01:06:42.815Z,464.3680
2022-08-25T01:06:53.978Z,464.3680
2022-08-25T01:07:05.085Z,465.3410
2022-08-25T01:07:17.950Z,465.0160
2022-08-25T01:07:29.086Z,463.0790
2022-08-25T01:07:40.339Z,462.7570
2022-08-25T01:07:57.459Z,458.9350
2022-08-25T01:08:10.261Z,454.2460
2022-08-25T01:08:21.265Z,457.3620
2022-08-25T01:08:32.434Z,456.7350
2022-08-25T01:08:43.456Z,458.6200
2022-08-25T01:08:54.641Z,459.2510
2022-08-25T01:09:05.716Z,459.2510
2022-08-25T01:09:16.801Z,462.4360
2022-08-25T01:09:27.861Z,462.1160
2022-08-25T01:09:38.932Z,463.7230
2022-08-25T01:09:50.087Z,463.7230
2022-08-25T01:10:01.286Z,462.4360
2022-08-25T01:10:12.411Z,461.7960
2022-08-25T01:10:23.761Z,463.0790
2022-08-25T01:10:34.811Z,464.3680
2022-08-25T01:10:45.883Z,462.1160
2022-08-25T01:10:57.023Z,464.0450
2022-08-25T01:11:08.119Z,467.9530
2022-08-25T01:11:19.163Z,463.0790
2022-08-25T01:11:30.213Z,463.7230
2022-08-25T01:11:41.359Z,465.0160
2022-08-25T01:11:52.430Z,465.6660
2022-08-25T01:12:03.502Z,466.3170
2022-08-25T01:12:14.650Z,465.3410
2022-08-25T01:12:25.842Z,464.6920
2022-08-25T01:12:36.912Z,464.3680
2022-08-25T01:12:48.027Z,465.0160
2022-08-25T01:12:59.148Z,464.6920
2022-08-25T01:13:14.609Z,468.2820
2022-08-25T01:13:27.214Z,455.4870
2022-08-25T01:13:38.349Z,457.9900
2022-08-25T01:13:49.410Z,457.9900
2022-08-25T01:14:00.532Z,461.1570
2022-08-25T01:14:11.620Z,464.6920
2022-08-25T01:14:22.681Z,461.7960
2022-08-25T01:14:33.848Z,461.7960
2022-08-25T01:14:44.878Z,466.6430
2022-08-25T01:14:55.932Z,466.3170
2022-08-25T01:15:07.083Z,464.0450
2022-08-25T01:15:18.120Z,464.3680
2022-08-25T01:15:29.414Z,468.2820
2022-08-25T01:15:40.616Z,466.3170
2022-08-25T01:15:51.863Z,469.9320
2022-08-25T01:16:03.028Z,463.7230
2022-08-25T01:16:14.251Z,464.3680
2022-08-25T01:16:25.350Z,464.0450
2022-08-25T01:16:36.397Z,464.0450
2022-08-25T01:16:50.966Z,467.6250
2022-08-25T01:17:02.561Z,463.0790
2022-08-25T01:17:13.782Z,463.0790
2022-08-25T01:17:24.967Z,462.7570
2022-08-25T01:17:36.167Z,465.6660
2022-08-25T01:17:47.377Z,464.0450
2022-08-25T01:17:59.760Z,464.3680
2022-08-25T01:18:11.085Z,462.7570
2022-08-25T01:18:22.250Z,464.0450
2022-08-25T01:18:33.381Z,468.9400
2022-08-25T01:18:44.432Z,466.9700
2022-08-25T01:18:55.492Z,463.7230
2022-08-25T01:19:06.549Z,464.3680
2022-08-25T01:19:17.742Z,466.6430
2022-08-25T01:19:28.930Z,466.6430
2022-08-25T01:19:40.131Z,468.9400
2022-08-25T01:19:51.209Z,468.6110
2022-08-25T01:20:02.279Z,466.9700
2022-08-25T01:20:13.412Z,466.3170
2022-08-25T01:20:24.539Z,466.6430
2022-08-25T01:20:41.510Z,458.3050
2022-08-25T01:20:52.552Z,459.8850
2022-08-25T01:21:03.617Z,464.3680
2022-08-25T01:21:14.795Z,464.0450
2022-08-25T01:21:26.181Z,468.9400
2022-08-25T01:21:37.361Z,464.0450
2022-08-25T01:21:48.571Z,467.6250
2022-08-25T01:21:59.649Z,463.4000
2022-08-25T01:22:10.739Z,467.2970
2022-08-25T01:22:21.953Z,467.9530
2022-08-25T01:22:33.009Z,465.3410
2022-08-25T01:22:44.069Z,467.6250
2022-08-25T01:22:59.208Z,460.8380
2022-08-25T01:23:10.269Z,462.4360
2022-08-25T01:23:21.320Z,464.0450
2022-08-25T01:23:32.523Z,464.0450
2022-08-25T01:23:43.809Z,462.7570
2022-08-25T01:23:54.938Z,464.6920
2022-08-25T01:24:06.057Z,463.0790
2022-08-25T01:24:17.109Z,466.9700
2022-08-25T01:24:28.147Z,466.9700
2022-08-25T01:24:39.359Z,468.9400
2022-08-25T01:24:50.544Z,466.9700
2022-08-25T01:25:01.684Z,466.6430
2022-08-25T01:25:12.777Z,472.5960
2022-08-25T01:25:23.806Z,468.2820
2022-08-25T01:25:34.862Z,469.2700
2022-08-25T01:25:45.936Z,468.2820
2022-08-25T01:25:57.082Z,467.6250
2022-08-25T01:26:08.191Z,470.5950
2022-08-25T01:26:19.252Z,469.2700
2022-08-25T01:26:32.302Z,467.9530
2022-08-25T01:26:43.359Z,467.2970
2022-08-25T01:26:54.431Z,468.6110
2022-08-25T01:27:05.469Z,469.6010
2022-08-25T01:27:16.568Z,467.6250
2022-08-25T01:27:27.801Z,469.9320
2022-08-25T01:27:38.868Z,468.6110
2022-08-25T01:27:50.223Z,467.9530
2022-08-25T01:28:01.577Z,470.9270
2022-08-25T01:28:12.599Z,471.2600
2022-08-25T01:28:23.802Z,468.2820
2022-08-25T01:28:35.051Z,471.2600
2022-08-25T01:28:46.111Z,470.9270
2022-08-25T01:28:57.180Z,472.2610
2022-08-25T01:29:08.254Z,472.9310
2022-08-25T01:29:19.440Z,469.6010
2022-08-25T01:29:30.482Z,471.5930
2022-08-25T01:29:41.560Z,469.6010
2022-08-25T01:29:52.614Z,472.2610
2022-08-25T01:30:04.130Z,469.2700
2022-08-25T01:30:15.182Z,469.6010
2022-08-25T01:30:26.218Z,471.9270
2022-08-25T01:30:37.447Z,476.3090
2022-08-25T01:30:48.628Z,472.9310
2022-08-25T01:30:59.836Z,471.5930
2022-08-25T01:31:23.909Z,470.9270
2022-08-25T01:31:28.085Z,463.7230
2022-08-25T01:31:39.207Z,463.4000
2022-08-25T01:31:50.370Z,465.6660
2022-08-25T01:32:01.570Z,467.6250
2022-08-25T01:32:12.771Z,464.6920
2022-08-25T01:32:23.924Z,465.0160
2022-08-25T01:32:35.049Z,467.6250
2022-08-25T01:32:46.118Z,466.3170
2022-08-25T01:32:57.168Z,467.6250
2022-08-25T01:33:08.287Z,468.6110
2022-08-25T01:33:19.338Z,471.2600
2022-08-25T01:33:30.407Z,468.2820
2022-08-25T01:33:41.455Z,471.9270
2022-08-25T01:33:52.653Z,468.6110
2022-08-25T01:34:03.854Z,470.9270
2022-08-25T01:34:14.887Z,468.9400
2022-08-25T01:34:25.940Z,470.9270
2022-08-25T01:34:37.075Z,471.5930
2022-08-25T01:34:48.194Z,470.5950
2022-08-25T01:34:59.742Z,468.9400
2022-08-25T01:35:10.800Z,470.2630
2022-08-25T01:35:21.903Z,467.6250
2022-08-25T01:35:32.969Z,470.5950
2022-08-25T01:35:44.010Z,470.5950
2022-08-25T01:35:55.151Z,471.5930
2022-08-25T01:36:06.370Z,469.6010
2022-08-25T01:36:17.577Z,469.6010
2022-08-25T01:36:28.709Z,472.2610
2022-08-25T01:36:39.755Z,470.5950
2022-08-25T01:36:50.817Z,471.9270
2022-08-25T01:37:01.859Z,469.6010
2022-08-25T01:37:13.441Z,471.2600
2022-08-25T01:37:24.741Z,471.5930
2022-08-25T01:37:35.919Z,470.2630
2022-08-25T01:37:46.973Z,471.9270
2022-08-25T01:37:58.035Z,472.9310
2022-08-25T01:38:09.134Z,470.5950
2022-08-25T01:38:20.256Z,474.9520
2022-08-25T01:38:31.889Z,473.6030
2022-08-25T01:38:42.991Z,472.9310
2022-08-25T01:38:54.070Z,471.2600
2022-08-25T01:39:05.241Z,474.2770
2022-08-25T01:39:16.295Z,473.6030
2022-08-25T01:39:27.362Z,472.9310
2022-08-25T01:39:38.524Z,476.6500
2022-08-25T01:39:49.633Z,476.3090
2022-08-25T01:40:00.779Z,475.6300
2022-08-25T01:40:11.933Z,474.9520
2022-08-25T01:40:23.121Z,473.6030
2022-08-25T01:40:34.406Z,474.2770
2022-08-25T01:40:45.461Z,473.6030
2022-08-25T01:40:56.527Z,474.9520
2022-08-25T01:41:07.761Z,476.3090
2022-08-25T01:41:18.973Z,478.0170
2022-08-25T01:41:30.128Z,476.3090
2022-08-25T01:41:41.188Z,476.9910
2022-08-25T01:41:52.346Z,475.6300
2022-08-25T01:42:03.475Z,476.3090
2022-08-25T01:42:14.671Z,478.3600
2022-08-25T01:42:25.741Z,478.0170
2022-08-25T01:42:36.890Z,477.6740
2022-08-25T01:42:47.988Z,476.6500
2022-08-25T01:42:59.046Z,477.6740
2022-08-25T01:43:10.170Z,476.3090
2022-08-25T01:43:21.256Z,479.3910
2022-08-25T01:43:32.460Z,479.0470
2022-08-25T01:43:43.659Z,478.0170
2022-08-25T01:43:54.883Z,478.7030
2022-08-25T01:44:06.087Z,476.9910
2022-08-25T01:44:19.845Z,474.2770
2022-08-25T01:44:31.037Z,476.3090
2022-08-25T01:44:42.100Z,476.9910
2022-08-25T01:44:53.203Z,476.6500
2022-08-25T01:45:04.330Z,474.9520
2022-08-25T01:45:15.386Z,482.5130
2022-08-25T01:45:26.440Z,481.1210
2022-08-25T01:45:40.066Z,475.2910
2022-08-25T01:45:51.174Z,478.0170
2022-08-25T01:46:02.277Z,476.6500
2022-08-25T01:46:13.502Z,475.2910
2022-08-25T01:46:24.674Z,479.3910
2022-08-25T01:46:35.838Z,478.3600
2022-08-25T01:46:48.034Z,474.9520
2022-08-25T01:46:59.165Z,475.6300
2022-08-25T01:47:10.309Z,477.3320
2022-08-25T01:47:21.412Z,477.6740
2022-08-25T01:47:32.452Z,478.7030
2022-08-25T01:47:43.678Z,479.7360
2022-08-25T01:47:56.272Z,475.6300
2022-08-25T01:48:07.434Z,473.6030
2022-08-25T01:48:18.599Z,476.9910
2022-08-25T01:48:29.660Z,476.9910
2022-08-25T01:48:40.882Z,476.3090
2022-08-25T01:48:51.956Z,476.9910
2022-08-25T01:49:06.688Z,476.6500
2022-08-25T01:49:18.198Z,471.5930
2022-08-25T01:49:29.396Z,472.2610
2022-08-25T01:49:40.712Z,472.9310
2022-08-25T01:49:51.766Z,475.9690
2022-08-25T01:50:02.843Z,474.6140
2022-08-25T01:50:13.936Z,474.2770
2022-08-25T01:50:25.049Z,476.3090
2022-08-25T01:50:36.126Z,475.2910
2022-08-25T01:50:47.168Z,476.6500
2022-08-25T01:50:58.302Z,476.3090
2022-08-25T01:51:09.423Z,480.4270
2022-08-25T01:51:20.488Z,474.2770
2022-08-25T01:51:31.552Z,477.3320
2022-08-25T01:51:42.606Z,477.6740
2022-08-25T01:51:53.671Z,475.6300
2022-08-25T01:52:04.770Z,479.3910
2022-08-25T01:52:15.839Z,479.0470
2022-08-25T01:52:26.961Z,476.9910
2022-08-25T01:52:38.181Z,477.6740
2022-08-25T01:52:49.246Z,473.9400
2022-08-25T01:53:00.307Z,480.4270
2022-08-25T01:53:11.462Z,477.3320
2022-08-25T01:53:22.682Z,476.3090
2022-08-25T01:53:33.907Z,478.3600
2022-08-25T01:53:45.070Z,478.3600
2022-08-25T01:53:56.114Z,479.0470
2022-08-25T01:54:07.321Z,479.0470
2022-08-25T01:54:18.533Z,473.9400
2022-08-25T01:54:29.670Z,478.3600
2022-08-25T01:54:40.730Z,479.7360
2022-08-25T01:54:51.880Z,478.7030
2022-08-25T01:55:03.103Z,479.3910
2022-08-25T01:55:14.312Z,477.3320
2022-08-25T01:55:25.503Z,477.6740
2022-08-25T01:55:36.628Z,479.0470
2022-08-25T01:55:47.757Z,478.0170
2022-08-25T01:55:59.295Z,481.4680
2022-08-25T01:56:10.836Z,476.9910
2022-08-25T01:56:21.886Z,477.6740
2022-08-25T01:56:33.017Z,479.7360
2022-08-25T01:56:44.087Z,480.0810
2022-08-25T01:56:55.218Z,475.9690
2022-08-25T01:57:06.355Z,477.3320
2022-08-25T01:57:17.402Z,477.3320
2022-08-25T01:57:28.585Z,480.4270
2022-08-25T01:57:39.639Z,480.4270
2022-08-25T01:57:50.854Z,479.0470
2022-08-25T01:58:02.041Z,481.1210
2022-08-25T01:58:13.254Z,479.7360
2022-08-25T01:58:24.412Z,479.0470
2022-08-25T01:58:35.548Z,480.0810
2022-08-25T01:58:46.625Z,478.0170
2022-08-25T01:58:57.755Z,479.7360
2022-08-25T01:59:08.898Z,481.8160
2022-08-25T01:59:24.141Z,479.0470
2022-08-25T01:59:35.718Z,473.6030
2022-08-25T01:59:46.872Z,478.0170
2022-08-25T01:59:58.018Z,475.9690
2022-08-25T02:00:09.206Z,480.0810
2022-08-25T02:00:20.263Z,476.9910
2022-08-25T02:00:31.302Z,478.0170
2022-08-25T02:00:42.584Z,478.3600
2022-08-25T02:00:53.701Z,479.0470
2022-08-25T02:01:04.826Z,479.3910
2022-08-25T02:01:16.307Z,476.9910
2022-08-25T02:01:27.671Z,476.6500
2022-08-25T02:01:38.899Z,481.8160
2022-08-25T02:01:49.989Z,477.6740
2022-08-25T02:02:01.060Z,479.7360
2022-08-25T02:02:18.358Z,474.9520
2022-08-25T02:02:29.785Z,471.5930
2022-08-25T02:02:44.169Z,467.9530
2022-08-25T02:02:55.819Z,470.2630
2022-08-25T02:03:06.921Z,470.9270
2022-08-25T02:03:23.830Z,464.3680
2022-08-25T02:03:36.319Z,465.0160
2022-08-25T02:03:48.137Z,467.2970
2022-08-25T02:03:59.732Z,467.2970
2022-08-25T02:04:11.009Z,466.9700
2022-08-25T02:04:22.463Z,466.3170
2022-08-25T02:04:34.264Z,470.2630
2022-08-25T02:04:45.449Z,469.9320
2022-08-25T02:04:56.589Z,470.2630
2022-08-25T02:05:07.740Z,470.5950
2022-08-25T02:05:23.306Z,470.9270
2022-08-25T02:05:34.782Z,463.0790
2022-08-25T02:05:48.018Z,463.7230
2022-08-25T02:05:59.361Z,464.0450
2022-08-25T02:06:10.451Z,466.3170
2022-08-25T02:06:21.509Z,469.6010
2022-08-25T02:06:38.496Z,460.5200
2022-08-25T02:06:52.280Z,458.9350
2022-08-25T02:07:03.414Z,457.9900
2022-08-25T02:07:14.540Z,463.7230
2022-08-25T02:07:25.594Z,463.4000
2022-08-25T02:07:36.682Z,463.4000
2022-08-25T02:07:49.188Z,467.6250
2022-08-25T02:08:00.354Z,465.6660
2022-08-25T02:08:11.390Z,465.6660
2022-08-25T02:08:22.429Z,468.2820
2022-08-25T02:08:33.628Z,467.6250
2022-08-25T02:08:45.017Z,467.2970
2022-08-25T02:08:56.074Z,465.9910
2022-08-25T02:09:07.207Z,468.9400
2022-08-25T02:09:18.267Z,471.5930
2022-08-25T02:09:29.317Z,469.6010
2022-08-25T02:09:40.388Z,469.9320
2022-08-25T02:09:51.589Z,468.9400
2022-08-25T02:10:03.420Z,470.2630
2022-08-25T02:10:14.632Z,468.9400
2022-08-25T02:10:25.686Z,474.9520
2022-08-25T02:10:36.816Z,472.5960
2022-08-25T02:10:47.878Z,470.9270
2022-08-25T02:10:58.935Z,474.9520
2022-08-25T02:11:10.074Z,472.2610
2022-08-25T02:11:21.161Z,469.6010
2022-08-25T02:11:32.191Z,470.5950
2022-08-25T02:11:43.231Z,473.2670
2022-08-25T02:11:54.371Z,473.2670
2022-08-25T02:12:05.509Z,473.9400
2022-08-25T02:12:16.566Z,472.9310
2022-08-25T02:12:27.649Z,472.5960
2022-08-25T02:12:38.789Z,475.6300
2022-08-25T02:12:49.867Z,473.9400
2022-08-25T02:13:01.329Z,474.2770
2022-08-25T02:13:12.561Z,473.9400
2022-08-25T02:13:26.736Z,471.5930
2022-08-25T02:13:42.640Z,465.0160
2022-08-25T02:13:53.719Z,466.6430
2022-08-25T02:14:04.878Z,465.9910
2022-08-25T02:14:16.085Z,468.9400
2022-08-25T02:14:27.236Z,467.2970